الصفحة الرئيسية
METAR-TAF:

METAR-TAF

مطار :

كولورادو سيتي, أريزونا, الولايات المتحدة

دائرة عرض: 36-57-36N, خط طول: 113-00-50W, ارتفاع: 1486 متر

مراقبة الطقس الحالي

تاريخ ووقت الإصدار 24 دقيقة قبل الساعة 04:35UTC
رياح هادئة
درجة الحرارة -5°درجة مئوية
الرطوبة 79%
ضغط 1030 hPa
الرؤية: 16.1 كم
سماء صافية

METAR: KAZC 140435Z AUTO 00000KT 10SM CLR M05/M08 A3042 RMK AO2

زمن: 21:59 (04:59 UTC)


TAF: مفقودة

أرصاد الطقس والتوقعات من أكثر من 4000 مطار (تقارير الطقس للمطار METAR والتنبؤ بالطقس بالمطارTAF).

المحطات المتاحة هي النقط الصفراء والحمراء على الخريطة.

حرك المؤشر فوق النقطة لمعرفة اسم المحطة.

ثم انقر لمعرفة أرصاد وتوقعات الطقس.

لتغيير الخارطة: اضغط على الأزرار الخضراء مع رمز الصليب الأسود للتكبير. على الزر الأخضر مع شرطة للتصغير، أو على الأسهم الخضراء للخرائط المجاورة.


METAR-TAF: